createdAt,value
2022-10-01T00:02:00.317Z,13.00
2022-10-01T00:04:27.650Z,12.98
2022-10-01T00:06:54.528Z,12.98
2022-10-01T00:09:21.485Z,12.95
2022-10-01T00:11:48.385Z,12.93
2022-10-01T00:14:15.309Z,12.91
2022-10-01T00:16:42.346Z,12.93
2022-10-01T00:19:13.148Z,12.90
2022-10-01T00:21:40.061Z,12.86
2022-10-01T00:24:07.137Z,12.89
2022-10-01T00:26:37.826Z,12.86
2022-10-01T00:29:07.734Z,12.85
2022-10-01T00:31:35.123Z,12.86
2022-10-01T00:34:05.628Z,12.87
2022-10-01T00:36:33.266Z,12.87
2022-10-01T00:39:00.896Z,12.88
2022-10-01T00:41:33.495Z,12.90
2022-10-01T00:44:03.727Z,12.86
2022-10-01T00:46:41.921Z,12.91
2022-10-01T00:49:13.712Z,12.86
2022-10-01T00:51:44.483Z,12.80
2022-10-01T00:54:20.663Z,12.80
2022-10-01T00:56:47.936Z,12.77
2022-10-01T00:59:16.490Z,12.73
2022-10-01T01:01:43.607Z,12.73
2022-10-01T01:04:16.795Z,12.76
2022-10-01T01:06:55.952Z,12.75
2022-10-01T01:09:25.824Z,12.68
2022-10-01T01:12:03.232Z,12.69
2022-10-01T01:14:51.281Z,12.72
2022-10-01T01:17:34.058Z,12.75
2022-10-01T01:20:19.663Z,12.75
2022-10-01T01:22:54.935Z,12.73
2022-10-01T01:25:26.194Z,12.74
2022-10-01T01:28:05.301Z,12.78
2022-10-01T01:30:33.212Z,12.77
2022-10-01T01:33:14.916Z,12.79
2022-10-01T01:36:04.653Z,12.83
2022-10-01T01:38:37.935Z,12.80
2022-10-01T01:41:06.281Z,12.82
2022-10-01T01:43:36.813Z,12.80
2022-10-01T01:46:06.019Z,12.83
2022-10-01T01:48:36.534Z,12.84
2022-10-01T01:51:11.859Z,12.84
2022-10-01T01:53:39.351Z,12.83
2022-10-01T01:56:07.326Z,12.82
2022-10-01T01:58:38.439Z,12.84
2022-10-01T02:01:05.638Z,12.83
2022-10-01T02:03:34.023Z,12.80
2022-10-01T02:06:44.304Z,12.80
2022-10-01T02:09:27.783Z,12.73
2022-10-01T02:12:21.339Z,12.70
2022-10-01T02:14:55.098Z,12.71
2022-10-01T02:17:29.518Z,12.66
2022-10-01T02:20:01.678Z,12.61
2022-10-01T02:22:42.680Z,12.58
2022-10-01T02:25:10.624Z,12.58
2022-10-01T02:27:44.688Z,12.60
2022-10-01T02:30:12.603Z,12.58
2022-10-01T02:32:41.008Z,12.60
2022-10-01T02:35:10.421Z,12.58
2022-10-01T02:37:38.338Z,12.58
2022-10-01T02:40:07.308Z,12.57
2022-10-01T02:42:35.578Z,12.58
2022-10-01T02:45:04.382Z,12.60
2022-10-01T02:47:39.501Z,12.63
2022-10-01T02:50:07.625Z,12.63
2022-10-01T02:52:41.319Z,12.63
2022-10-01T02:55:38.089Z,12.65
2022-10-01T02:58:06.013Z,12.60
2022-10-01T03:00:33.208Z,12.61
2022-10-01T03:03:00.289Z,12.59
2022-10-01T03:05:27.397Z,12.60
2022-10-01T03:07:54.256Z,12.63
2022-10-01T03:10:21.323Z,12.62
2022-10-01T03:12:48.397Z,12.61
2022-10-01T03:15:17.640Z,12.61
2022-10-01T03:17:44.584Z,12.62
2022-10-01T03:20:12.354Z,12.63
2022-10-01T03:22:39.241Z,12.63
2022-10-01T03:25:07.465Z,12.65
2022-10-01T03:27:34.557Z,12.67
2022-10-01T03:30:01.484Z,12.66
2022-10-01T03:32:30.719Z,12.65
2022-10-01T03:34:57.827Z,12.65
2022-10-01T03:37:25.177Z,12.64
2022-10-01T03:39:52.100Z,12.66
2022-10-01T03:42:19.125Z,12.68
2022-10-01T03:44:46.048Z,12.72
2022-10-01T03:47:12.885Z,12.74
2022-10-01T03:49:40.028Z,12.69
2022-10-01T03:52:06.956Z,12.71
2022-10-01T03:54:34.020Z,12.75
2022-10-01T03:57:00.974Z,12.76
2022-10-01T03:59:27.929Z,12.77
2022-10-01T04:01:54.904Z,12.71
2022-10-01T04:04:22.084Z,12.70
2022-10-01T04:06:49.057Z,12.70
2022-10-01T04:09:15.898Z,12.71
2022-10-01T04:11:43.001Z,12.71
2022-10-01T04:14:09.904Z,12.73
2022-10-01T04:16:36.855Z,12.78
2022-10-01T04:19:05.095Z,12.78
2022-10-01T04:21:32.313Z,12.77
2022-10-01T04:24:00.148Z,12.77
2022-10-01T04:26:27.218Z,12.74
2022-10-01T04:28:54.092Z,12.65
2022-10-01T04:31:25.166Z,12.62
2022-10-01T04:33:57.185Z,12.62
2022-10-01T04:36:25.279Z,12.61
2022-10-01T04:39:00.740Z,12.61
2022-10-01T04:41:31.286Z,12.60
2022-10-01T04:44:01.991Z,12.62
2022-10-01T04:46:30.503Z,12.63
2022-10-01T04:48:57.911Z,12.60
2022-10-01T04:51:24.886Z,12.50
2022-10-01T04:53:51.805Z,12.47
2022-10-01T04:56:18.682Z,12.45
2022-10-01T04:58:45.831Z,12.48
2022-10-01T05:01:12.762Z,12.50
2022-10-01T05:03:39.952Z,12.43
2022-10-01T05:06:06.877Z,12.34
2022-10-01T05:08:34.055Z,12.30
2022-10-01T05:11:01.014Z,12.40
2022-10-01T05:13:30.321Z,12.38
2022-10-01T05:15:58.329Z,12.38
2022-10-01T05:18:25.310Z,12.43
2022-10-01T05:20:53.354Z,12.45
2022-10-01T05:23:20.577Z,12.42
2022-10-01T05:25:48.225Z,12.42
2022-10-01T05:28:21.408Z,12.46
2022-10-01T05:30:51.447Z,12.50
2022-10-01T05:33:18.973Z,12.54
2022-10-01T05:35:46.535Z,12.58
2022-10-01T05:38:14.211Z,12.62
2022-10-01T05:40:46.065Z,12.63
2022-10-01T05:43:13.875Z,12.64
2022-10-01T05:45:43.303Z,12.63
2022-10-01T05:48:13.021Z,12.67
2022-10-01T05:50:41.039Z,12.74
2022-10-01T05:53:10.748Z,12.71
2022-10-01T05:55:38.197Z,12.74
2022-10-01T05:58:07.598Z,12.80
2022-10-01T06:00:36.488Z,12.79
2022-10-01T06:03:05.228Z,12.83
2022-10-01T06:05:34.585Z,12.79
2022-10-01T06:08:05.354Z,12.80
2022-10-01T06:10:32.668Z,12.79
2022-10-01T06:13:02.153Z,12.82
2022-10-01T06:15:35.318Z,12.87
2022-10-01T06:18:24.480Z,12.85
2022-10-01T06:21:17.360Z,12.93
2022-10-01T06:23:45.194Z,12.96
2022-10-01T06:26:12.605Z,13.02
2022-10-01T06:28:54.021Z,13.14
2022-10-01T06:31:22.319Z,13.16
2022-10-01T06:33:50.079Z,13.24
2022-10-01T06:36:17.991Z,13.25
2022-10-01T06:38:48.607Z,13.20
2022-10-01T06:41:16.248Z,13.24
2022-10-01T06:43:43.790Z,13.23
2022-10-01T06:46:11.471Z,13.15
2022-10-01T06:48:40.309Z,13.16
2022-10-01T06:51:08.873Z,13.16
2022-10-01T06:53:50.733Z,13.18
2022-10-01T06:56:19.836Z,13.20
2022-10-01T06:58:47.447Z,13.19
2022-10-01T07:01:17.276Z,13.27
2022-10-01T07:03:45.072Z,13.31
2022-10-01T07:06:12.962Z,13.34
2022-10-01T07:08:42.507Z,13.22
2022-10-01T07:11:13.135Z,13.15
2022-10-01T07:13:41.404Z,13.20
2022-10-01T07:16:09.290Z,13.24
2022-10-01T07:18:38.511Z,13.34
2022-10-01T07:21:06.354Z,13.41
2022-10-01T07:23:33.586Z,13.46
2022-10-01T07:26:05.513Z,13.51
2022-10-01T07:28:33.197Z,13.46
2022-10-01T07:31:15.468Z,13.49
2022-10-01T07:33:42.831Z,13.53
2022-10-01T07:36:11.718Z,13.53
2022-10-01T07:38:39.384Z,13.55
2022-10-01T07:41:06.621Z,13.51
2022-10-01T07:43:35.039Z,13.55
2022-10-01T07:46:03.932Z,13.51
2022-10-01T07:48:32.588Z,13.39
2022-10-01T07:51:00.121Z,13.44
2022-10-01T07:53:28.540Z,13.55
2022-10-01T07:55:56.668Z,13.55
2022-10-01T07:58:24.456Z,13.74
2022-10-01T08:00:59.817Z,13.90
2022-10-01T08:03:43.244Z,14.04
2022-10-01T08:06:13.053Z,14.07
2022-10-01T08:08:41.485Z,14.34
2022-10-01T08:11:10.477Z,14.40
2022-10-01T08:13:40.702Z,14.41
2022-10-01T08:16:15.634Z,14.36
2022-10-01T08:18:43.062Z,14.36
2022-10-01T08:21:10.655Z,14.38
2022-10-01T08:23:38.178Z,14.45
2022-10-01T08:26:08.008Z,14.50
2022-10-01T08:28:35.884Z,14.53
2022-10-01T08:31:24.276Z,14.49
2022-10-01T08:34:33.101Z,14.46
2022-10-01T08:37:16.148Z,14.36
2022-10-01T08:39:44.703Z,14.46
2022-10-01T08:42:48.346Z,14.46
2022-10-01T08:45:27.540Z,14.34
2022-10-01T08:48:19.657Z,14.21
2022-10-01T08:50:53.257Z,14.13
2022-10-01T08:53:32.958Z,14.11
2022-10-01T08:56:02.055Z,14.07
2022-10-01T08:58:38.332Z,14.06
2022-10-01T09:01:05.898Z,14.06
2022-10-01T09:03:34.126Z,14.05
2022-10-01T09:06:24.829Z,14.09
2022-10-01T09:09:20.105Z,14.04
2022-10-01T09:12:07.979Z,13.99
2022-10-01T09:15:03.100Z,13.97
2022-10-01T09:18:05.237Z,13.93
2022-10-01T09:20:59.089Z,13.87
2022-10-01T09:23:26.693Z,13.79
2022-10-01T09:25:54.085Z,13.82
2022-10-01T09:28:24.947Z,13.93
2022-10-01T09:31:01.536Z,14.02
2022-10-01T09:33:32.973Z,14.05
2022-10-01T09:36:03.740Z,14.05
2022-10-01T09:38:43.825Z,14.06
2022-10-01T09:41:13.143Z,14.05
2022-10-01T09:43:44.469Z,13.97
2022-10-01T09:46:17.513Z,13.94
2022-10-01T09:48:59.820Z,13.98
2022-10-01T09:51:40.880Z,13.96
2022-10-01T09:54:20.747Z,13.94
2022-10-01T09:57:05.754Z,14.01
2022-10-01T10:00:01.552Z,14.12
2022-10-01T10:02:41.478Z,14.12
2022-10-01T10:05:24.224Z,14.12
2022-10-01T10:07:58.140Z,14.17
2022-10-01T10:10:36.391Z,14.28
2022-10-01T10:13:14.227Z,14.38
2022-10-01T10:16:01.330Z,14.35
2022-10-01T10:18:59.641Z,14.41
2022-10-01T10:22:00.801Z,14.36
2022-10-01T10:24:38.135Z,14.35
2022-10-01T10:27:29.091Z,14.41
2022-10-01T10:30:06.678Z,14.39
2022-10-01T10:32:34.987Z,14.41
2022-10-01T10:35:05.742Z,14.46
2022-10-01T10:37:37.628Z,14.48
2022-10-01T10:40:08.490Z,14.51
2022-10-01T10:42:39.356Z,14.57
2022-10-01T10:45:17.021Z,14.59
2022-10-01T10:47:51.980Z,14.54
2022-10-01T10:50:39.478Z,14.55
2022-10-01T10:53:44.476Z,14.46
2022-10-01T10:56:23.635Z,14.39
2022-10-01T10:58:52.458Z,14.30
2022-10-01T11:01:40.481Z,14.32
2022-10-01T11:04:25.451Z,14.44
2022-10-01T11:07:01.491Z,14.74
2022-10-01T11:09:48.386Z,15.06
2022-10-01T11:12:25.549Z,15.18
2022-10-01T11:14:55.933Z,15.26
2022-10-01T11:17:26.163Z,15.36
2022-10-01T11:20:05.229Z,15.56
2022-10-01T11:22:48.194Z,15.60
2022-10-01T11:25:26.737Z,15.43
2022-10-01T11:28:00.641Z,15.29
2022-10-01T11:31:00.273Z,15.14
2022-10-01T11:34:00.411Z,15.11
2022-10-01T11:37:04.791Z,15.05
2022-10-01T11:39:34.902Z,15.03
2022-10-01T11:42:06.930Z,15.08
2022-10-01T11:44:50.404Z,15.00
2022-10-01T11:47:30.890Z,14.99
2022-10-01T11:50:05.799Z,14.96
2022-10-01T11:52:38.416Z,14.94
2022-10-01T11:55:35.735Z,14.89
2022-10-01T11:58:32.472Z,14.77
2022-10-01T12:01:16.366Z,14.68
2022-10-01T12:03:54.358Z,14.71
2022-10-01T12:06:33.593Z,14.69
2022-10-01T12:09:26.559Z,14.70
2022-10-01T12:12:22.719Z,14.79
2022-10-01T12:15:01.717Z,14.96
2022-10-01T12:17:46.026Z,15.23
2022-10-01T12:20:32.847Z,15.54
2022-10-01T12:23:05.041Z,15.79
2022-10-01T12:25:43.919Z,15.88
2022-10-01T12:28:19.130Z,15.93
2022-10-01T12:30:54.489Z,16.13
2022-10-01T12:33:53.091Z,16.56
2022-10-01T12:36:40.237Z,17.80
2022-10-01T12:39:32.134Z,17.77
2022-10-01T12:42:32.311Z,17.33
2022-10-01T12:45:31.624Z,16.95
2022-10-01T12:48:22.552Z,16.66
2022-10-01T12:51:18.296Z,16.67
2022-10-01T12:53:53.091Z,17.53
2022-10-01T12:56:34.122Z,18.72
2022-10-01T12:59:30.165Z,18.10
2022-10-01T13:02:03.294Z,18.09
2022-10-01T13:05:07.113Z,18.83
2022-10-01T13:08:18.786Z,20.42
2022-10-01T13:11:15.361Z,20.69
2022-10-01T13:13:43.105Z,19.45
2022-10-01T13:16:22.231Z,18.39
2022-10-01T13:19:05.966Z,18.01
2022-10-01T13:21:45.283Z,17.62
2022-10-01T13:24:27.334Z,17.20
2022-10-01T13:27:01.588Z,16.66
2022-10-01T13:29:58.632Z,16.30
2022-10-01T13:32:28.611Z,16.10
2022-10-01T13:34:56.551Z,15.90
2022-10-01T13:37:32.717Z,15.72
2022-10-01T13:40:00.319Z,15.60
2022-10-01T13:42:37.245Z,15.51
2022-10-01T13:45:06.889Z,15.46
2022-10-01T13:47:40.255Z,15.37
2022-10-01T13:50:33.680Z,15.33
2022-10-01T13:53:19.041Z,15.27
2022-10-01T13:55:47.883Z,15.20
2022-10-01T13:58:50.144Z,15.23
2022-10-01T14:01:22.860Z,15.20
2022-10-01T14:03:59.314Z,15.23
2022-10-01T14:06:35.794Z,15.20
2022-10-01T14:09:21.364Z,15.17
2022-10-01T14:12:13.918Z,15.16
2022-10-01T14:15:10.619Z,15.16
2022-10-01T14:17:37.931Z,15.15
2022-10-01T14:20:08.570Z,15.18
2022-10-01T14:23:03.573Z,15.18
2022-10-01T14:25:56.469Z,15.12
2022-10-01T14:29:01.046Z,15.10
2022-10-01T14:31:42.557Z,15.02
2022-10-01T14:34:22.464Z,14.95
2022-10-01T14:36:51.634Z,14.98
2022-10-01T14:39:24.178Z,15.00
2022-10-01T14:41:52.946Z,14.88
2022-10-01T14:44:28.735Z,14.77
2022-10-01T14:46:59.779Z,14.68
2022-10-01T14:49:33.038Z,14.60
2022-10-01T14:52:04.001Z,14.54
2022-10-01T14:54:38.711Z,14.46
2022-10-01T14:57:11.180Z,14.43
2022-10-01T14:59:40.279Z,14.40
2022-10-01T15:02:18.760Z,14.39
2022-10-01T15:04:51.201Z,14.36
2022-10-01T15:07:20.398Z,14.31
2022-10-01T15:09:48.977Z,14.28
2022-10-01T15:12:17.741Z,14.23
2022-10-01T15:14:48.242Z,14.20
2022-10-01T15:17:25.731Z,14.16
2022-10-01T15:19:54.730Z,14.07
2022-10-01T15:22:25.277Z,14.06
2022-10-01T15:24:54.345Z,14.00
2022-10-01T15:27:21.856Z,13.98
2022-10-01T15:29:56.430Z,13.95
2022-10-01T15:32:25.073Z,13.97
2022-10-01T15:34:54.528Z,13.97
2022-10-01T15:37:32.478Z,14.01
2022-10-01T15:40:00.945Z,13.99
2022-10-01T15:42:33.474Z,14.00
2022-10-01T15:45:06.640Z,13.97
2022-10-01T15:47:38.067Z,13.92
2022-10-01T15:50:11.036Z,13.88
2022-10-01T15:53:02.323Z,13.87
2022-10-01T15:55:35.193Z,13.78
2022-10-01T15:58:07.186Z,13.76
2022-10-01T16:00:43.497Z,13.81
2022-10-01T16:03:23.532Z,13.86
2022-10-01T16:05:52.842Z,13.83
2022-10-01T16:08:23.041Z,13.82
2022-10-01T16:11:16.034Z,13.85
2022-10-01T16:13:44.964Z,13.87
2022-10-01T16:16:22.970Z,13.90
2022-10-01T16:18:56.763Z,13.91
2022-10-01T16:21:24.763Z,13.86
2022-10-01T16:23:53.292Z,13.81
2022-10-01T16:26:47.355Z,13.82
2022-10-01T16:29:14.887Z,13.76
2022-10-01T16:31:45.058Z,13.80
2022-10-01T16:34:14.261Z,13.87
2022-10-01T16:36:44.817Z,13.97
2022-10-01T16:39:16.185Z,14.07
2022-10-01T16:41:45.104Z,14.11
2022-10-01T16:44:14.100Z,14.13
2022-10-01T16:46:50.136Z,14.16
2022-10-01T16:49:18.671Z,14.15
2022-10-01T16:52:00.708Z,14.12
2022-10-01T16:54:28.515Z,14.06
2022-10-01T16:56:55.961Z,14.08
2022-10-01T16:59:24.132Z,14.08
2022-10-01T17:01:55.868Z,14.11
2022-10-01T17:04:33.635Z,14.09
2022-10-01T17:07:03.180Z,14.09
2022-10-01T17:09:32.538Z,14.08
2022-10-01T17:12:11.162Z,14.07
2022-10-01T17:14:38.795Z,14.02
2022-10-01T17:17:06.486Z,14.00
2022-10-01T17:19:33.958Z,13.97
2022-10-01T17:22:01.440Z,13.97
2022-10-01T17:24:29.986Z,13.98
2022-10-01T17:26:58.152Z,13.95
2022-10-01T17:29:27.592Z,13.96
2022-10-01T17:31:58.468Z,13.93
2022-10-01T17:34:26.448Z,13.94
2022-10-01T17:37:05.010Z,13.92
2022-10-01T17:39:34.910Z,13.92
2022-10-01T17:42:03.008Z,13.91
2022-10-01T17:44:31.344Z,13.91
2022-10-01T17:46:59.038Z,13.90
2022-10-01T17:49:27.847Z,13.86
2022-10-01T17:51:55.696Z,13.84
2022-10-01T17:54:23.501Z,13.83
2022-10-01T17:56:52.938Z,13.83
2022-10-01T17:59:21.079Z,13.83
2022-10-01T18:01:55.834Z,13.84
2022-10-01T18:04:29.683Z,13.80
2022-10-01T18:07:08.723Z,13.76
2022-10-01T18:09:38.246Z,13.77
2022-10-01T18:12:31.013Z,13.79
2022-10-01T18:15:02.249Z,13.74
2022-10-01T18:17:33.089Z,13.73
2022-10-01T18:20:01.632Z,13.68
2022-10-01T18:23:11.679Z,13.67
2022-10-01T18:26:02.227Z,13.62
2022-10-01T18:28:37.831Z,13.62
2022-10-01T18:31:11.393Z,13.59
2022-10-01T18:34:01.469Z,13.56
2022-10-01T18:37:36.292Z,13.60
2022-10-01T18:40:39.277Z,13.47
2022-10-01T18:43:56.027Z,13.44
2022-10-01T18:46:29.042Z,13.36
2022-10-01T18:49:27.759Z,13.37
2022-10-01T18:52:47.508Z,13.37
2022-10-01T18:55:43.021Z,13.35
2022-10-01T18:58:48.941Z,13.41
2022-10-01T19:01:16.410Z,13.39
2022-10-01T19:03:55.946Z,13.39
2022-10-01T19:06:44.716Z,13.35
2022-10-01T19:09:37.228Z,13.29
2022-10-01T19:12:24.034Z,13.09
2022-10-01T19:15:41.301Z,12.92
2022-10-01T19:19:22.686Z,12.73
2022-10-01T19:21:58.758Z,12.61
2022-10-01T19:24:42.656Z,12.50
2022-10-01T19:27:14.841Z,12.41
2022-10-01T19:30:13.952Z,12.35
2022-10-01T19:32:50.067Z,12.28
2022-10-01T19:35:21.920Z,12.25
2022-10-01T19:37:57.777Z,12.20
2022-10-01T19:40:48.545Z,12.13
2022-10-01T19:43:30.321Z,12.13
2022-10-01T19:46:12.254Z,12.19
2022-10-01T19:48:49.440Z,12.14
2022-10-01T19:51:22.483Z,12.10
2022-10-01T19:53:56.950Z,12.13
2022-10-01T19:56:27.848Z,12.18
2022-10-01T19:58:58.419Z,12.22
2022-10-01T20:01:38.450Z,12.22
2022-10-01T20:04:14.800Z,12.25
2022-10-01T20:06:44.631Z,12.30
2022-10-01T20:09:23.598Z,12.33
2022-10-01T20:12:20.286Z,12.37
2022-10-01T20:15:20.452Z,12.42
2022-10-01T20:18:28.094Z,12.44
2022-10-01T20:21:05.184Z,12.45
2022-10-01T20:23:58.870Z,12.45
2022-10-01T20:26:45.464Z,12.43
2022-10-01T20:29:16.801Z,12.44
2022-10-01T20:31:59.387Z,12.52
2022-10-01T20:34:30.141Z,12.58
2022-10-01T20:37:09.534Z,12.65
2022-10-01T20:39:43.044Z,12.69
2022-10-01T20:42:38.843Z,12.74
2022-10-01T20:45:15.522Z,12.74
2022-10-01T20:47:49.982Z,12.77
2022-10-01T20:50:38.922Z,12.76
2022-10-01T20:53:39.100Z,12.79
2022-10-01T20:56:17.201Z,12.78
2022-10-01T20:58:57.577Z,12.78
2022-10-01T21:01:27.266Z,12.74
2022-10-01T21:04:01.804Z,12.76
2022-10-01T21:06:39.608Z,12.78
2022-10-01T21:09:29.210Z,12.80
2022-10-01T21:12:03.024Z,12.76
2022-10-01T21:14:39.162Z,12.73
2022-10-01T21:17:35.783Z,12.70
2022-10-01T21:20:27.976Z,12.67
2022-10-01T21:23:18.706Z,12.63
2022-10-01T21:25:59.164Z,12.64
2022-10-01T21:28:42.056Z,12.64
2022-10-01T21:31:39.556Z,12.61
2022-10-01T21:34:19.901Z,12.57
2022-10-01T21:36:59.118Z,12.58
2022-10-01T21:39:35.930Z,12.57
2022-10-01T21:42:03.158Z,12.55
2022-10-01T21:44:36.650Z,12.57
2022-10-01T21:47:03.985Z,12.56
2022-10-01T21:50:07.564Z,12.57
2022-10-01T21:52:38.938Z,12.54
2022-10-01T21:55:30.425Z,12.55
2022-10-01T21:58:07.196Z,12.53
2022-10-01T22:00:34.639Z,12.52
2022-10-01T22:03:08.116Z,12.52
2022-10-01T22:05:57.734Z,12.52
2022-10-01T22:08:43.940Z,12.52
2022-10-01T22:11:27.176Z,12.54
2022-10-01T22:13:59.462Z,12.56
2022-10-01T22:16:32.247Z,12.54
2022-10-01T22:19:11.864Z,12.54
2022-10-01T22:21:48.873Z,12.50
2022-10-01T22:24:19.781Z,12.46
2022-10-01T22:26:54.805Z,12.45
2022-10-01T22:29:26.096Z,12.43
2022-10-01T22:31:57.261Z,12.39
2022-10-01T22:34:29.640Z,12.35
2022-10-01T22:37:13.043Z,12.28
2022-10-01T22:39:45.039Z,12.20
2022-10-01T22:42:29.382Z,12.12
2022-10-01T22:45:06.122Z,12.10
2022-10-01T22:47:46.124Z,12.06
2022-10-01T22:50:32.207Z,12.04
2022-10-01T22:53:09.475Z,11.99
2022-10-01T22:55:55.620Z,11.97
2022-10-01T22:58:58.144Z,11.98
2022-10-01T23:01:31.908Z,11.93
2022-10-01T23:04:02.285Z,11.89
2022-10-01T23:06:42.304Z,11.80
2022-10-01T23:09:18.319Z,11.73
2022-10-01T23:11:55.319Z,11.65
2022-10-01T23:14:40.047Z,11.59
2022-10-01T23:17:36.455Z,11.53
2022-10-01T23:20:13.837Z,11.32
2022-10-01T23:22:47.741Z,11.20
2022-10-01T23:25:15.525Z,11.07
2022-10-01T23:28:07.949Z,11.06
2022-10-01T23:31:02.921Z,10.99
2022-10-01T23:33:45.241Z,10.90
2022-10-01T23:36:34.179Z,10.84
2022-10-01T23:39:30.754Z,10.81
2022-10-01T23:42:22.614Z,10.77
2022-10-01T23:45:09.951Z,10.67
2022-10-01T23:48:00.975Z,10.65
2022-10-01T23:50:36.327Z,10.67
2022-10-01T23:53:14.518Z,10.73
2022-10-01T23:56:22.102Z,10.75
2022-10-01T23:59:22.184Z,10.85
